Time;durP1;ratioP1;P1;durP2;ratioP2;P2;SDS_P1;SDS_P2;PMS_P1;PMS_P2;Temp;Humidity;BMP_temperature;BMP_pressure;BME280_temperature;BME280_humidity;BME280_pressure;Samples;Min_cycle;Max_cycle;Signal;HPM_P1;HPM_P2
2023/01/08 00:00:57;;;;;;;10.35;1.13;;;;;;;6.64;78.05;97964.66;4997203;28;20077;-58
2023/01/08 00:03:23;;;;;;;11.15;1.45;;;;;;;6.73;78.56;97955.03;4997630;28;20139;-58
2023/01/08 00:05:50;;;;;;;6.97;1.90;;;;;;;6.68;78.74;97955.13;5003071;28;20585;-58
2023/01/08 00:08:17;;;;;;;8.65;1.65;;;;;;;6.66;78.16;97946.63;4984036;28;20896;-57
2023/01/08 00:10:44;;;;;;;12.00;1.27;;;;;;;6.72;77.38;97951.63;4997196;28;20054;-58
2023/01/08 00:13:11;;;;;;;11.50;1.80;;;;;;;6.72;78.18;97950.78;5001715;28;20611;-58
2023/01/08 00:15:38;;;;;;;12.73;2.13;;;;;;;6.71;77.38;97943.91;4999035;28;20080;-58
2023/01/08 00:18:04;;;;;;;10.98;1.27;;;;;;;6.71;78.06;97949.06;4997323;28;20086;-57
2023/01/08 00:20:32;;;;;;;10.10;1.55;;;;;;;6.76;78.19;97952.41;4999559;28;20069;-58
2023/01/08 00:22:59;;;;;;;11.02;1.52;;;;;;;6.77;77.99;97960.09;5001436;28;20054;-58
2023/01/08 00:25:25;;;;;;;10.18;1.40;;;;;;;6.79;78.65;97952.34;5006476;28;20084;-58
2023/01/08 00:27:52;;;;;;;10.18;1.65;;;;;;;6.88;78.04;97959.88;5003860;28;20045;-57
2023/01/08 00:30:19;;;;;;;10.63;1.10;;;;;;;6.90;78.68;97959.84;5005335;28;20054;-58
2023/01/08 00:32:45;;;;;;;7.10;1.25;;;;;;;6.90;77.96;97958.13;5005473;28;20104;-58
2023/01/08 00:35:12;;;;;;;9.85;2.10;;;;;;;6.96;78.33;97948.56;5000397;28;21548;-58
2023/01/08 00:37:38;;;;;;;6.20;0.98;;;;;;;6.94;78.59;97949.44;5000654;28;20046;-58
2023/01/08 00:40:06;;;;;;;18.67;1.58;;;;;;;7.00;77.61;97951.03;5000856;28;20050;-57
2023/01/08 00:42:33;;;;;;;3.78;0.40;;;;;;;7.00;78.04;97950.19;5001090;28;20121;-57
2023/01/08 00:44:59;;;;;;;6.38;1.17;;;;;;;7.00;78.40;97942.47;5004453;28;20042;-57
2023/01/08 00:47:26;;;;;;;9.30;1.33;;;;;;;6.97;78.94;97939.97;5001115;28;20139;-57
2023/01/08 00:49:52;;;;;;;10.82;2.17;;;;;;;7.01;77.98;97946.72;5003054;28;20130;-57
2023/01/08 00:52:19;;;;;;;15.63;1.30;;;;;;;6.98;78.66;97942.50;5000451;28;20092;-56
2023/01/08 00:54:45;;;;;;;14.10;1.63;;;;;;;7.00;78.15;97940.75;5003537;28;20070;-56
2023/01/08 00:57:12;;;;;;;10.32;1.33;;;;;;;7.02;78.74;97943.25;4997928;28;20065;-58
2023/01/08 00:59:39;;;;;;;14.05;1.05;;;;;;;6.98;78.35;97927.06;5002349;28;20107;-57
2023/01/08 01:02:05;;;;;;;10.70;1.08;;;;;;;6.93;77.88;97924.56;5001859;28;20516;-58
2023/01/08 01:04:32;;;;;;;12.68;2.22;;;;;;;6.97;77.47;97924.50;5002003;28;20133;-57
2023/01/08 01:06:59;;;;;;;8.25;1.45;;;;;;;6.93;79.03;97911.72;4997777;28;20057;-57
2023/01/08 01:09:25;;;;;;;12.75;0.73;;;;;;;6.89;78.42;97912.66;4999266;28;20143;-57
2023/01/08 01:11:52;;;;;;;8.27;1.73;;;;;;;6.88;77.58;97899.81;4996932;28;20085;-58
2023/01/08 01:14:19;;;;;;;11.25;1.17;;;;;;;6.83;78.22;97902.53;4999810;28;20057;-55
2023/01/08 01:16:47;;;;;;;7.32;1.10;;;;;;;6.89;78.10;97894.63;4999994;28;20057;-55
2023/01/08 01:19:15;;;;;;;9.40;1.20;;;;;;;6.85;78.11;97890.44;5000233;28;20050;-58
2023/01/08 01:21:43;;;;;;;14.23;1.40;;;;;;;6.90;78.32;97898.94;4981664;28;20097;-57
2023/01/08 01:24:12;;;;;;;8.38;1.13;;;;;;;6.88;77.51;97889.53;4998450;28;20096;-57
2023/01/08 01:26:41;;;;;;;12.73;1.58;;;;;;;6.89;78.45;97892.06;4999603;28;20092;-58
2023/01/08 01:29:09;;;;;;;7.25;0.80;;;;;;;6.89;78.60;97889.50;5003489;28;20054;-57
2023/01/08 01:31:38;;;;;;;6.22;0.98;;;;;;;6.92;77.23;97893.72;5003347;28;20049;-58
2023/01/08 01:34:06;;;;;;;10.23;0.90;;;;;;;6.84;78.91;97888.75;5000538;28;20044;-57
2023/01/08 01:36:35;;;;;;;8.18;1.00;;;;;;;6.87;78.68;97899.00;5000612;28;20045;-58
2023/01/08 01:39:05;;;;;;;9.38;1.35;;;;;;;6.89;77.68;97897.22;5001829;28;20108;-58
2023/01/08 01:41:41;;;;;;;13.40;2.13;;;;;;;6.84;78.66;97899.06;4998843;28;20049;-59
2023/01/08 01:44:44;;;;;;;8.65;1.15;;;;;;;6.80;78.13;97889.72;5003441;28;20413;-56
2023/01/08 01:47:24;;;;;;;7.90;0.70;;;;;;;6.79;78.76;97906.03;4997132;28;20103;-57
2023/01/08 01:50:02;;;;;;;8.70;1.38;;;;;;;6.80;78.62;97907.72;4999436;28;20137;-58
2023/01/08 01:52:35;;;;;;;7.47;1.58;;;;;;;6.76;78.23;97912.06;4996657;28;20502;-56
2023/01/08 01:55:04;;;;;;;7.50;1.25;;;;;;;6.77;77.67;97907.78;4997255;28;20062;-54
2023/01/08 01:57:32;;;;;;;8.18;1.33;;;;;;;6.77;77.99;97910.34;4995172;28;20070;-57
2023/01/08 02:00:03;;;;;;;7.72;1.00;;;;;;;6.75;78.83;97914.72;5001118;28;20041;-56
2023/01/08 02:02:31;;;;;;;7.93;1.60;;;;;;;6.73;78.56;97911.31;5000009;28;20062;-58
2023/01/08 02:05:00;;;;;;;6.00;1.95;;;;;;;6.73;78.49;97906.16;4999751;28;21541;-57
2023/01/08 02:07:48;;;;;;;16.73;1.08;;;;;;;6.72;78.78;97909.63;4995449;28;20736;-57
2023/01/08 02:10:22;;;;;;;7.68;1.63;;;;;;;6.71;77.78;97911.34;4995211;28;20069;-55
2023/01/08 02:12:56;;;;;;;9.93;0.90;;;;;;;6.74;78.82;97913.84;4998329;28;20077;-57
2023/01/08 02:18:27;;;;;;;9.82;1.45;;;;;;;6.79;78.85;97911.19;5070739;28;20866;-57
2023/01/08 02:21:00;;;;;;;13.45;1.13;;;;;;;6.80;79.26;97912.88;5016458;28;20099;-57
2023/01/08 02:26:33;;;;;;;14.32;2.45;;;;;;;6.83;78.11;97923.09;5014179;27;20406;-56
2023/01/08 02:31:39;;;;;;;14.05;2.40;;;;;;;6.89;78.11;97927.28;5032973;27;20418;-58
2023/01/08 02:34:06;;;;;;;13.00;2.63;;;;;;;6.90;77.91;97929.81;5014404;28;20607;-58
2023/01/08 02:39:34;;;;;;;9.95;1.35;;;;;;;6.85;78.59;97921.31;5051158;28;20401;-58
2023/01/08 02:53:35;;;;;;;9.75;1.15;;;;;;;6.93;77.77;97909.13;5059652;27;20396;-56
2023/01/08 02:56:07;;;;;;;10.02;1.33;;;;;;;6.93;78.22;97906.56;5017561;27;20123;-56
2023/01/08 02:58:36;;;;;;;16.77;1.00;;;;;;;6.93;78.43;97918.59;5019562;28;20074;-57
2023/01/08 03:01:06;;;;;;;10.52;0.90;;;;;;;6.94;78.58;97916.00;5014859;28;20053;-57
2023/01/08 03:03:34;;;;;;;9.35;1.17;;;;;;;7.01;78.90;97916.69;5015402;28;20049;-58
2023/01/08 03:06:04;;;;;;;16.58;1.27;;;;;;;7.05;79.14;97909.75;5016170;28;20049;-56
2023/01/08 03:08:33;;;;;;;;;;;;;;;6.99;79.27;97902.19;4997169;28;20150;-57
2023/01/08 03:11:03;;;;;;;11.50;1.33;;;;;;;7.07;78.49;97915.72;5023246;28;19984;-58
2023/01/08 03:13:33;;;;;;;;;;;;;;;7.01;77.82;97901.25;4996124;28;20090;-56
2023/01/08 03:16:05;;;;;;;10.18;0.70;;;;;;;7.08;77.97;97907.09;5005543;28;19964;-57
2023/01/08 03:18:36;;;;;;;13.60;0.80;;;;;;;7.12;78.79;97913.88;5013890;28;20506;-57
2023/01/08 03:21:05;;;;;;;6.78;1.45;;;;;;;7.12;78.14;97900.16;4993812;28;20081;-57
2023/01/08 03:23:36;;;;;;;4.88;0.60;;;;;;;7.14;77.91;97900.97;4996918;28;20096;-57
2023/01/08 03:26:03;;;;;;;;;;;;;;;7.03;77.89;97883.19;4997131;28;20653;-57
2023/01/08 03:28:36;;;;;;;5.20;0.40;;;;;;;7.06;78.71;97889.13;4992523;28;19984;-58
2023/01/08 03:31:04;;;;;;;5.05;0.73;;;;;;;7.04;77.10;97893.47;4995687;28;20042;-57
2023/01/08 03:33:32;;;;;;;10.57;0.98;;;;;;;7.06;78.26;97898.59;4995027;28;20042;-57
2023/01/08 03:36:02;;;;;;;8.43;1.20;;;;;;;7.06;78.82;97894.25;4994784;28;20046;-57
2023/01/08 03:38:35;;;;;;;8.02;0.85;;;;;;;7.05;77.35;97886.56;4994265;28;20144;-57
2023/01/08 03:41:08;;;;;;;5.45;0.80;;;;;;;7.05;77.13;97889.16;5011484;28;20053;-58
2023/01/08 03:43:35;;;;;;;6.82;0.73;;;;;;;6.96;78.17;97886.78;5015514;28;20060;-57
2023/01/08 03:46:08;;;;;;;7.47;0.98;;;;;;;6.97;77.24;97888.47;5015108;28;20073;-58
2023/01/08 03:48:37;;;;;;;7.68;1.08;;;;;;;6.93;77.01;97898.84;5015860;28;20048;-56
2023/01/08 03:51:08;;;;;;;6.25;0.75;;;;;;;6.82;78.41;97895.66;5019889;28;20085;-57
2023/01/08 03:53:35;;;;;;;5.85;1.05;;;;;;;6.81;78.53;97897.41;5014796;28;20056;-57
2023/01/08 03:56:01;;;;;;;6.63;0.82;;;;;;;6.79;78.81;97896.56;5011221;28;21752;-56
2023/01/08 03:58:28;;;;;;;7.18;1.42;;;;;;;6.77;78.57;97897.50;5015569;28;20695;-57
2023/01/08 04:00:55;;;;;;;8.45;1.13;;;;;;;6.78;78.64;97904.31;5012347;28;20053;-56
2023/01/08 04:03:23;;;;;;;4.93;0.90;;;;;;;6.79;77.27;97885.47;5012501;28;20126;-55
2023/01/08 04:05:50;;;;;;;7.20;1.42;;;;;;;6.73;78.89;97891.59;4997291;28;20466;-57
2023/01/08 04:08:16;;;;;;;9.90;0.60;;;;;;;6.68;78.01;97888.25;5001119;28;20076;-56
2023/01/08 04:10:43;;;;;;;6.18;1.20;;;;;;;6.71;78.79;97907.91;4999572;28;20046;-57
2023/01/08 04:13:09;;;;;;;10.55;1.00;;;;;;;6.72;77.62;97894.19;4996596;28;20081;-57
2023/01/08 04:15:37;;;;;;;11.90;1.80;;;;;;;6.67;78.16;97895.13;5002331;28;20539;-57
2023/01/08 04:18:03;;;;;;;5.35;0.80;;;;;;;6.65;77.45;97894.31;5002170;28;20057;-55
2023/01/08 04:20:30;;;;;;;10.10;0.90;;;;;;;6.68;78.78;97899.41;5003060;28;20058;-56
2023/01/08 04:22:56;;;;;;;8.30;1.85;;;;;;;6.67;77.53;97902.84;5002605;28;20569;-58
2023/01/08 04:25:23;;;;;;;8.02;1.00;;;;;;;6.66;78.28;97901.13;4997943;28;20137;-57
2023/01/08 04:27:50;;;;;;;15.10;0.85;;;;;;;6.70;78.67;97896.78;4999345;28;20063;-56
2023/01/08 04:30:16;;;;;;;5.72;1.27;;;;;;;6.66;77.45;97901.13;5002573;28;20503;-56
2023/01/08 04:32:43;;;;;;;10.02;0.70;;;;;;;6.70;77.73;97894.22;5002712;28;20038;-56
2023/01/08 04:35:09;;;;;;;10.68;1.25;;;;;;;6.67;77.67;97890.00;5000032;28;20057;-57
2023/01/08 04:37:36;;;;;;;13.75;1.20;;;;;;;6.67;77.96;97886.56;5002039;28;20108;-57
2023/01/08 04:40:03;;;;;;;11.52;1.48;;;;;;;6.62;77.97;97884.06;4997146;28;20076;-56
2023/01/08 04:42:30;;;;;;;8.77;0.80;;;;;;;6.64;78.18;97882.34;4998031;28;20046;-58
2023/01/08 04:44:56;;;;;;;10.13;1.15;;;;;;;6.61;77.70;97879.81;5001545;28;20100;-56
2023/01/08 04:47:23;;;;;;;7.97;0.95;;;;;;;6.62;77.50;97878.94;5005113;28;20574;-57
2023/01/08 04:49:49;;;;;;;9.55;0.85;;;;;;;6.60;79.18;97875.56;5001200;28;20662;-57
2023/01/08 04:52:16;;;;;;;6.80;1.92;;;;;;;6.60;77.52;97865.28;5001661;28;20834;-57
2023/01/08 04:54:42;;;;;;;11.75;0.77;;;;;;;6.60;78.95;97867.84;5003277;28;20103;-57
2023/01/08 04:57:09;;;;;;;4.72;0.93;;;;;;;6.58;78.17;97861.88;4998612;28;20041;-57
2023/01/08 04:59:35;;;;;;;8.18;1.08;;;;;;;6.60;78.92;97870.41;5006087;28;20575;-57
2023/01/08 05:02:02;;;;;;;8.00;0.57;;;;;;;6.59;78.26;97868.72;5005929;28;20073;-57
2023/01/08 05:04:29;;;;;;;9.07;0.95;;;;;;;6.61;78.07;97877.25;5003580;28;20166;-58
2023/01/08 05:06:56;;;;;;;4.18;0.80;;;;;;;6.58;78.09;97872.16;5006778;28;20045;-57
2023/01/08 05:09:22;;;;;;;8.55;0.65;;;;;;;6.58;78.06;97871.34;5000819;28;20042;-56
2023/01/08 05:11:49;;;;;;;4.70;0.50;;;;;;;6.52;77.02;97869.75;5002812;28;20084;-54
2023/01/08 05:14:15;;;;;;;3.10;0.65;;;;;;;6.54;77.81;97871.41;5004448;28;20049;-57
2023/01/08 05:16:42;;;;;;;5.57;0.73;;;;;;;6.52;77.94;97869.75;5003292;28;20104;-57
2023/01/08 05:19:09;;;;;;;6.05;0.57;;;;;;;6.53;78.65;97863.72;5000742;28;20049;-57
2023/01/08 05:21:35;;;;;;;6.25;0.70;;;;;;;6.45;78.48;97855.31;5003826;28;20139;-56
2023/01/08 05:24:02;;;;;;;8.25;0.90;;;;;;;6.45;78.05;97850.19;5001624;28;20494;-56
2023/01/08 05:26:29;;;;;;;4.97;0.93;;;;;;;6.39;78.29;97846.84;4999592;28;20752;-54
2023/01/08 05:28:56;;;;;;;8.32;1.15;;;;;;;6.38;77.49;97850.28;5001379;28;20516;-57
2023/01/08 05:31:22;;;;;;;2.08;0.77;;;;;;;6.34;78.26;97847.81;5007865;28;20053;-57
2023/01/08 05:33:50;;;;;;;4.68;0.82;;;;;;;6.35;76.91;97847.78;5001673;28;20041;-57
2023/01/08 05:36:17;;;;;;;7.50;1.08;;;;;;;6.27;77.20;97847.94;5001070;28;20433;-57
2023/01/08 05:38:43;;;;;;;2.95;0.63;;;;;;;6.28;77.33;97843.63;5003899;28;20050;-57
2023/01/08 05:41:10;;;;;;;7.47;0.95;;;;;;;6.26;77.91;97836.00;5002689;28;20731;-56
2023/01/08 05:43:36;;;;;;;5.15;2.20;;;;;;;6.22;78.04;97839.50;5002061;28;20625;-57
2023/01/08 05:46:04;;;;;;;5.75;0.40;;;;;;;6.23;77.22;97841.19;5003574;28;20050;-57
2023/01/08 05:48:33;;;;;;;2.42;0.47;;;;;;;6.19;77.95;97833.56;5005265;28;20065;-57
2023/01/08 05:51:01;;;;;;;1.27;0.80;;;;;;;6.15;77.05;97843.06;5001677;28;20112;-57
2023/01/08 05:53:27;;;;;;;4.00;0.30;;;;;;;6.11;77.81;97839.69;5000217;28;20092;-57
2023/01/08 05:55:59;;;;;;;2.85;0.50;;;;;;;6.06;76.72;97833.81;5001254;28;20104;-56
2023/01/08 05:58:26;;;;;;;0.85;0.30;;;;;;;6.06;76.45;97838.97;5000878;28;20096;-57
2023/01/08 06:00:59;;;;;;;4.15;0.40;;;;;;;6.04;77.58;97846.69;5000254;28;21316;-57
2023/01/08 06:03:26;;;;;;;2.55;0.20;;;;;;;6.01;77.76;97845.88;4997660;28;20073;-57
2023/01/08 06:05:56;;;;;;;5.93;1.42;;;;;;;6.06;77.14;97845.81;4998472;28;20715;-58
2023/01/08 06:08:23;;;;;;;;;;;;;;;5.99;76.58;97852.78;5001425;28;21031;-57
2023/01/08 06:10:49;;;;;;;5.43;1.42;;;;;;;6.07;76.74;97850.91;5001280;28;20664;-57
2023/01/08 06:13:16;;;;;;;1.20;0.43;;;;;;;6.02;77.27;97850.97;5000446;28;20069;-56
2023/01/08 06:15:42;;;;;;;1.67;0.68;;;;;;;6.02;77.26;97848.41;4999132;28;20077;-56
2023/01/08 06:18:09;;;;;;;3.45;0.30;;;;;;;6.04;77.73;97846.69;5000220;28;20473;-57
2023/01/08 06:20:35;;;;;;;2.05;0.60;;;;;;;6.06;77.23;97849.25;5002616;28;20069;-57
2023/01/08 06:23:02;;;;;;;0.43;0.20;;;;;;;6.01;77.10;97845.88;4997849;28;20092;-57
2023/01/08 06:25:29;;;;;;;4.60;1.00;;;;;;;6.04;76.21;97850.97;4998447;28;20722;-55
2023/01/08 06:27:55;;;;;;;1.40;0.20;;;;;;;6.08;77.57;97846.63;5002307;28;20127;-57
2023/01/08 06:30:22;;;;;;;6.00;0.40;;;;;;;6.06;77.27;97844.09;4995501;28;20457;-57
2023/01/08 06:32:48;;;;;;;3.30;0.40;;;;;;;6.07;76.88;97853.50;4999951;28;20071;-57
2023/01/08 06:35:15;;;;;;;2.60;0.35;;;;;;;6.10;76.41;97850.88;4999945;28;20054;-55
2023/01/08 06:37:42;;;;;;;2.28;0.30;;;;;;;6.12;78.16;97848.28;4998542;28;20480;-57
2023/01/08 06:40:09;;;;;;;3.78;0.30;;;;;;;6.17;77.42;97847.31;4997522;28;20046;-57
2023/01/08 06:42:35;;;;;;;2.45;0.60;;;;;;;6.21;77.74;97848.06;5002405;28;20069;-57
2023/01/08 06:45:02;;;;;;;2.28;0.32;;;;;;;6.21;77.93;97848.06;5007579;28;20103;-56
2023/01/08 06:47:29;;;;;;;2.80;0.30;;;;;;;6.25;77.14;97843.72;5000228;28;20127;-57
2023/01/08 06:49:57;;;;;;;2.08;0.57;;;;;;;6.21;76.73;97842.09;5002201;28;20053;-57
2023/01/08 06:52:50;;;;;;;4.03;0.40;;;;;;;6.14;76.84;97838.78;4999893;28;20050;-56
2023/01/08 06:55:16;;;;;;;0.40;0.20;;;;;;;6.15;77.10;97833.63;5019304;28;20085;-56
2023/01/08 06:57:43;;;;;;;4.53;0.30;;;;;;;6.11;76.22;97826.84;5001560;28;20145;-56
2023/01/08 07:00:10;;;;;;;3.00;0.40;;;;;;;6.08;77.30;97832.03;4999760;28;20107;-57
2023/01/08 07:02:37;;;;;;;1.00;0.20;;;;;;;6.05;77.44;97832.13;5001255;28;20452;-57
2023/01/08 07:05:04;;;;;;;1.10;0.32;;;;;;;5.99;76.48;97825.34;5002261;28;20476;-57
2023/01/08 07:07:31;;;;;;;0.30;0.22;;;;;;;5.97;76.29;97833.94;4997666;28;20085;-56
2023/01/08 07:09:58;;;;;;;0.28;0.10;;;;;;;5.91;77.58;97827.22;4999011;28;20077;-57
2023/01/08 07:12:24;;;;;;;1.00;0.30;;;;;;;5.86;76.77;97832.47;4995292;28;20164;-57
2023/01/08 07:14:51;;;;;;;1.63;0.20;;;;;;;5.86;76.27;97832.47;4997815;28;20502;-58
2023/01/08 07:17:17;;;;;;;3.13;0.40;;;;;;;5.83;78.08;97847.94;4999912;28;20548;-57
2023/01/08 07:19:44;;;;;;;4.68;0.30;;;;;;;5.85;76.59;97841.03;5002208;28;20230;-57
2023/01/08 07:22:10;;;;;;;3.38;0.20;;;;;;;5.80;76.96;97840.28;4998798;28;21341;-58
2023/01/08 07:24:37;;;;;;;2.03;0.77;;;;;;;5.82;77.88;97840.25;4996787;28;20757;-57
2023/01/08 07:27:04;;;;;;;0.63;0.10;;;;;;;5.83;77.95;97847.94;4999333;28;20493;-55
2023/01/08 07:29:30;;;;;;;0.85;0.20;;;;;;;5.85;76.94;97846.19;5002350;28;20085;-56
2023/01/08 07:31:57;;;;;;;2.75;0.50;;;;;;;5.89;77.01;97852.09;4998981;28;20147;-57
2023/01/08 07:34:23;;;;;;;3.67;0.50;;;;;;;5.97;76.87;97849.38;4998097;28;20050;-57
2023/01/08 07:36:50;;;;;;;0.32;0.20;;;;;;;6.00;78.53;97844.16;5000281;28;20046;-56
2023/01/08 07:39:16;;;;;;;0.82;0.25;;;;;;;5.98;77.40;97840.81;5006854;28;20080;-57
2023/01/08 07:41:43;;;;;;;3.13;0.43;;;;;;;6.00;77.99;97841.59;5001358;28;20080;-57
2023/01/08 07:44:10;;;;;;;2.67;0.50;;;;;;;6.00;78.93;97839.03;5006757;28;20077;-57
2023/01/08 07:46:37;;;;;;;2.72;0.70;;;;;;;5.99;77.43;97827.06;5002128;28;20072;-57
2023/01/08 07:49:04;;;;;;;7.97;0.57;;;;;;;5.96;78.60;97822.00;5005452;28;20046;-58
2023/01/08 07:51:31;;;;;;;4.22;0.50;;;;;;;5.97;77.28;97815.97;5005141;28;20231;-58
2023/01/08 07:53:58;;;;;;;5.07;0.35;;;;;;;5.95;77.98;97818.59;5004641;28;20042;-57
2023/01/08 07:56:24;;;;;;;2.40;0.30;;;;;;;5.88;78.04;97804.16;5006189;28;20081;-57
2023/01/08 07:58:51;;;;;;;0.68;0.28;;;;;;;5.85;78.97;97805.09;4996002;28;20104;-57
2023/01/08 08:01:18;;;;;;;1.90;1.05;;;;;;;5.82;77.40;97801.72;5002137;28;20715;-57
2023/01/08 08:03:45;;;;;;;3.40;0.65;;;;;;;5.78;78.20;97803.50;5003037;28;20050;-56
2023/01/08 08:06:11;;;;;;;3.63;0.50;;;;;;;5.72;78.08;97801.03;5003831;28;20073;-58
2023/01/08 08:08:38;;;;;;;2.35;0.60;;;;;;;5.74;79.25;97801.88;4999413;28;20076;-56
2023/01/08 08:11:07;;;;;;;1.77;0.50;;;;;;;5.70;78.39;97800.22;5002764;28;20239;-56
2023/01/08 08:13:34;;;;;;;1.25;0.70;;;;;;;5.70;78.39;97802.78;5002798;28;20092;-57
2023/01/08 08:16:02;;;;;;;2.08;0.35;;;;;;;5.64;78.35;97807.16;4994790;28;20557;-56
2023/01/08 08:18:30;;;;;;;4.22;0.63;;;;;;;5.63;79.46;97795.22;5004219;28;20046;-57
2023/01/08 08:20:57;;;;;;;3.03;0.57;;;;;;;5.65;78.94;97793.44;5006757;28;20535;-57
2023/01/08 08:23:24;;;;;;;3.67;0.60;;;;;;;5.64;79.18;97791.75;4995907;28;20053;-57
2023/01/08 08:25:51;;;;;;;2.42;0.40;;;;;;;5.63;78.86;97784.94;4995269;28;20125;-56
2023/01/08 08:28:17;;;;;;;5.95;0.70;;;;;;;5.67;79.68;97780.56;4999825;28;20127;-56
2023/01/08 08:30:44;;;;;;;2.70;0.63;;;;;;;5.75;79.46;97785.56;4998885;28;20096;-57
2023/01/08 08:33:10;;;;;;;2.58;0.65;;;;;;;5.82;79.77;97784.59;5002277;28;20149;-56
2023/01/08 08:35:37;;;;;;;7.63;0.77;;;;;;;5.96;78.17;97776.59;5002531;28;20046;-57
2023/01/08 08:38:04;;;;;;;2.33;0.30;;;;;;;6.13;78.21;97773.69;4999567;28;20168;-57
2023/01/08 08:40:30;;;;;;;1.98;0.40;;;;;;;6.28;78.41;97771.66;5004715;28;20076;-56
2023/01/08 08:42:59;;;;;;;6.40;0.60;;;;;;;6.34;78.46;97761.25;5004414;28;20125;-55
2023/01/08 08:45:27;;;;;;;2.88;0.43;;;;;;;6.61;78.28;97768.34;5002183;28;20053;-57
2023/01/08 08:47:53;;;;;;;3.45;0.52;;;;;;;6.86;76.73;97768.63;5005188;28;20103;-57
2023/01/08 08:50:20;;;;;;;3.92;0.35;;;;;;;7.10;76.42;97761.19;5004128;28;20053;-56
2023/01/08 08:52:47;;;;;;;0.32;0.32;;;;;;;7.22;76.15;97764.34;4999911;28;20077;-56
2023/01/08 08:55:16;;;;;;;6.07;0.70;;;;;;;7.54;76.19;97760.06;5004409;28;20042;-55
2023/01/08 08:57:44;;;;;;;6.88;0.60;;;;;;;7.68;75.65;97752.78;5003540;28;20045;-56
2023/01/08 09:00:12;;;;;;;5.15;0.50;;;;;;;7.86;74.97;97754.91;4997948;28;20115;-57
2023/01/08 09:02:38;;;;;;;3.45;0.40;;;;;;;7.91;74.27;97743.53;5005832;28;20046;-57
2023/01/08 09:05:05;;;;;;;2.10;0.35;;;;;;;8.04;74.73;97743.19;5002721;28;20104;-56
2023/01/08 09:07:32;;;;;;;1.33;0.40;;;;;;;8.00;73.91;97736.44;5003193;28;20144;-57
2023/01/08 09:09:58;;;;;;;4.03;0.43;;;;;;;7.69;73.48;97739.00;5005400;28;20073;-58
2023/01/08 09:12:25;;;;;;;9.38;2.08;;;;;;;7.48;73.09;97735.31;5001021;28;20782;-56
2023/01/08 09:14:53;;;;;;;3.85;0.50;;;;;;;7.28;73.79;97718.66;5000207;28;20100;-58
2023/01/08 09:17:20;;;;;;;3.92;0.93;;;;;;;7.49;74.28;97720.69;5002971;28;20081;-57
2023/01/08 09:19:47;;;;;;;2.72;0.55;;;;;;;7.72;74.22;97712.31;5001319;28;20089;-57
2023/01/08 09:22:13;;;;;;;3.05;1.45;;;;;;;7.70;73.43;97704.63;4999339;28;20806;-57
2023/01/08 09:24:40;;;;;;;2.28;0.77;;;;;;;7.71;74.80;97711.47;5001339;28;20529;-56
2023/01/08 09:27:07;;;;;;;2.70;0.40;;;;;;;7.52;74.59;97705.13;4999652;28;20129;-57
2023/01/08 09:29:36;;;;;;;3.35;0.50;;;;;;;7.27;74.97;97705.81;5003473;28;20050;-56
2023/01/08 09:32:06;;;;;;;5.68;0.95;;;;;;;7.16;74.89;97704.38;5000930;28;20062;-57
2023/01/08 09:34:35;;;;;;;4.85;1.20;;;;;;;7.07;75.18;97702.06;5002569;28;20092;-56
2023/01/08 09:37:02;;;;;;;2.85;0.30;;;;;;;7.06;75.35;97698.63;5002102;28;20044;-56
2023/01/08 09:39:29;;;;;;;5.95;0.60;;;;;;;7.15;75.64;97696.69;5002270;28;20132;-57
2023/01/08 09:41:59;;;;;;;3.15;0.47;;;;;;;7.10;75.76;97689.13;4999026;28;20081;-57
2023/01/08 09:44:32;;;;;;;3.72;0.82;;;;;;;7.03;75.82;97678.13;5000507;28;20052;-58
2023/01/08 09:46:59;;;;;;;4.70;0.40;;;;;;;7.00;74.93;97682.50;5002296;28;20042;-57
2023/01/08 09:49:39;;;;;;;3.13;0.38;;;;;;;6.99;74.97;97680.84;5001217;28;20056;-56
2023/01/08 09:52:11;;;;;;;6.50;0.70;;;;;;;6.86;77.09;97675.16;4999751;28;20057;-56
2023/01/08 09:54:39;;;;;;;3.88;0.70;;;;;;;6.78;75.67;97673.63;4997945;28;20058;-57
2023/01/08 09:57:12;;;;;;;3.55;0.50;;;;;;;6.76;75.97;97679.69;5022592;28;20632;-57
2023/01/08 09:59:39;;;;;;;2.05;0.90;;;;;;;6.69;76.32;97673.88;4996369;28;20112;-57
2023/01/08 10:02:13;;;;;;;4.25;0.68;;;;;;;6.65;78.10;97673.06;4997791;28;20045;-56
2023/01/08 10:04:41;;;;;;;3.42;0.60;;;;;;;6.66;77.51;97668.78;5000358;28;20052;-57
2023/01/08 10:07:20;;;;;;;3.63;0.93;;;;;;;6.65;77.06;97673.06;4999435;28;20088;-55
2023/01/08 10:09:49;;;;;;;4.68;0.50;;;;;;;6.69;78.51;97664.41;4998602;28;20049;-55
2023/01/08 10:12:26;;;;;;;5.40;0.80;;;;;;;6.81;77.59;97658.09;4997015;28;20042;-56
2023/01/08 10:14:58;;;;;;;6.38;0.73;;;;;;;7.25;78.52;97661.25;5001282;28;20073;-56
2023/01/08 10:20:11;;;;;;;8.88;0.82;;;;;;;7.50;75.93;97651.09;5013537;28;20424;-58
2023/01/08 10:22:38;;;;;;;3.78;0.85;;;;;;;7.43;76.88;97649.59;5008005;28;20143;-59
2023/01/08 10:25:10;;;;;;;5.88;1.10;;;;;;;7.39;77.22;97648.81;5002767;28;20057;-57
2023/01/08 10:27:44;;;;;;;;;;;;;;;7.24;76.01;97650.13;5006715;28;20053;-55
2023/01/08 10:30:15;;;;;;;6.15;1.20;;;;;;;7.17;77.43;97639.13;5015038;28;20266;-58
2023/01/08 10:32:55;;;;;;;4.32;0.47;;;;;;;7.19;77.46;97646.81;5005921;28;20096;-58
2023/01/08 10:35:31;;;;;;;3.42;0.40;;;;;;;7.16;77.81;97632.28;5009842;28;20038;-57
2023/01/08 10:37:58;;;;;;;5.45;0.50;;;;;;;7.30;76.96;97626.75;5008816;28;20054;-58
2023/01/08 10:40:32;;;;;;;6.22;0.80;;;;;;;7.44;77.50;97621.19;5012352;28;20955;-57
2023/01/08 10:43:07;;;;;;;4.05;0.57;;;;;;;7.63;77.04;97623.25;5010925;28;20127;-56
2023/01/08 10:45:34;;;;;;;2.85;0.73;;;;;;;7.64;76.22;97606.91;5006090;28;20084;-57
2023/01/08 10:48:05;;;;;;;2.58;1.50;;;;;;;7.64;76.11;97603.47;5009156;28;20447;-57
2023/01/08 10:50:33;;;;;;;6.72;0.85;;;;;;;7.50;76.94;97604.72;5008833;28;20042;-57
2023/01/08 10:53:04;;;;;;;3.25;0.57;;;;;;;7.45;77.12;97602.31;5012341;28;20053;-57
2023/01/08 10:55:38;;;;;;;6.57;1.42;;;;;;;7.36;76.78;97592.25;5007419;28;20354;-58
2023/01/08 11:00:44;;;;;;;4.25;1.27;;;;;;;7.38;77.13;97590.50;5026678;28;20398;-56
2023/01/08 11:03:26;;;;;;;4.45;1.73;;;;;;;7.42;75.99;97580.94;4996596;28;20043;-55
2023/01/08 11:05:53;;;;;;;4.70;1.45;;;;;;;7.30;77.23;97577.00;4995073;28;20043;-57
2023/01/08 11:08:21;;;;;;;5.85;1.13;;;;;;;7.36;77.35;97573.41;4993728;28;20042;-57
2023/01/08 11:10:54;;;;;;;4.88;1.92;;;;;;;7.32;77.34;97557.19;4993828;28;20076;-57
2023/01/08 11:13:22;;;;;;;4.68;1.48;;;;;;;7.37;77.49;97557.91;4989927;28;20093;-57
2023/01/08 11:16:09;;;;;;;8.68;1.77;;;;;;;7.37;76.08;97549.34;4989824;28;20080;-57
2023/01/08 11:18:45;;;;;;;7.63;1.40;;;;;;;7.43;77.22;97542.25;4993356;28;20064;-57
2023/01/08 11:21:23;;;;;;;3.30;1.17;;;;;;;7.40;77.49;97531.22;4990226;28;20089;-58
2023/01/08 11:26:53;;;;;;;3.33;0.50;;;;;;;7.55;77.27;97525.59;4997560;28;20422;-55
2023/01/08 11:37:26;;;;;;;2.85;0.60;;;;;;;7.93;77.07;97507.22;5034616;27;20410;-57
2023/01/08 11:39:54;;;;;;;2.60;0.73;;;;;;;7.93;76.61;97514.94;5014131;28;20041;-57
2023/01/08 11:45:40;;;;;;;4.82;0.40;;;;;;;8.13;76.57;97473.91;5056160;28;20405;-60
2023/01/08 11:48:38;;;;;;;6.75;0.98;;;;;;;8.21;76.23;97495.97;5007933;28;20112;-56
2023/01/08 11:51:44;;;;;;;3.13;1.10;;;;;;;8.37;75.65;97477.38;4993062;28;20045;-55
2023/01/08 12:02:33;;;;;;;5.47;1.95;;;;;;;8.26;74.88;97464.03;5069227;27;20396;-57
2023/01/08 12:05:29;;;;;;;5.75;1.40;;;;;;;8.20;74.34;97455.63;5085169;28;20045;-58
2023/01/08 12:25:00;;;;;;;2.28;0.40;;;;;;;8.14;74.81;97414.56;5032565;27;20381;-57
2023/01/08 12:30:35;;;;;;;3.10;0.60;;;;;;;8.22;73.95;97402.25;5093290;27;20405;-58
2023/01/08 12:33:24;;;;;;;2.85;0.40;;;;;;;8.32;74.74;97407.06;5043874;28;20049;-57
2023/01/08 12:35:55;;;;;;;2.53;0.50;;;;;;;8.31;73.71;97398.50;5044724;28;20566;-58
2023/01/08 12:38:30;;;;;;;3.58;2.08;;;;;;;8.32;73.21;97389.03;5042499;28;20591;-56
2023/01/08 12:41:03;;;;;;;6.40;0.90;;;;;;;8.33;73.31;97386.41;5045873;28;20099;-57
2023/01/08 12:43:44;;;;;;;1.13;0.43;;;;;;;8.35;73.63;97376.03;5042991;28;20132;-58
2023/01/08 12:46:15;;;;;;;2.63;0.45;;;;;;;8.33;73.08;97380.38;5042697;28;20068;-57
2023/01/08 12:48:45;;;;;;;4.97;0.50;;;;;;;8.28;73.03;97379.72;5045714;28;20063;-56
2023/01/08 12:51:19;;;;;;;2.50;0.40;;;;;;;8.31;73.34;97377.03;5038236;28;20049;-58
2023/01/08 12:54:13;;;;;;;2.22;1.23;;;;;;;8.23;73.13;97367.84;5029938;28;20476;-58
2023/01/08 13:04:45;;;;;;;2.30;0.70;;;;;;;8.37;72.69;97371.63;5009957;28;20408;-56
2023/01/08 13:07:20;;;;;;;0.40;0.10;;;;;;;8.36;71.81;97372.53;4981687;28;20047;-58
2023/01/08 13:10:00;;;;;;;1.65;0.40;;;;;;;8.33;73.22;97375.22;4978694;28;20128;-56